Time;durP1;ratioP1;P1;durP2;ratioP2;P2;SDS_P1;SDS_P2;PMS_P1;PMS_P2;Temp;Humidity;BMP_temperature;BMP_pressure;BME280_temperature;BME280_humidity;BME280_pressure;Samples;Min_cycle;Max_cycle;Signal;HPM_P1;HPM_P2
2023/12/31 00:02:05;;;;;;;8.47;3.17;;;;;;;;;;5053262;28;20413;-71
2023/12/31 00:04:32;;;;;;;12.53;3.00;;;;;;;;;;5051986;28;20930;-71
2023/12/31 00:06:59;;;;;;;11.17;2.90;;;;;;;;;;5054352;28;20989;-71
2023/12/31 00:09:25;;;;;;;7.63;2.77;;;;;;;;;;5040011;28;20473;-71
2023/12/31 00:11:52;;;;;;;10.37;3.60;;;;;;;;;;5055604;28;20463;-71
2023/12/31 00:14:18;;;;;;;10.37;3.10;;;;;;;;;;5057090;28;20898;-71
2023/12/31 00:16:45;;;;;;;11.03;2.93;;;;;;;;;;5072122;28;20934;-71
2023/12/31 00:19:11;;;;;;;11.53;3.33;;;;;;;;;;5038905;28;20440;-71
2023/12/31 00:21:55;;;;;;;10.23;3.30;;;;;;;;;;5057033;28;20420;-71
2023/12/31 00:24:22;;;;;;;9.17;3.60;;;;;;;;;;5056251;28;20433;-71
2023/12/31 00:26:49;;;;;;;7.70;3.03;;;;;;;;;;5055210;28;20468;-71
2023/12/31 00:29:16;;;;;;;7.93;3.07;;;;;;;;;;5055315;28;20527;-71
2023/12/31 00:31:42;;;;;;;13.33;2.60;;;;;;;;;;5055224;28;20928;-71
2023/12/31 00:34:26;;;;;;;10.93;2.67;;;;;;;;;;5056787;28;20439;-71
2023/12/31 00:36:53;;;;;;;10.20;2.97;;;;;;;;;;5055348;28;20970;-71
2023/12/31 00:39:37;;;;;;;11.70;3.07;;;;;;;;;;5056465;28;20190;-71
2023/12/31 00:42:05;;;;;;;9.73;2.63;;;;;;;;;;5055549;28;20425;-71
2023/12/31 00:44:32;;;;;;;12.13;3.07;;;;;;;;;;5071556;28;20576;-71
2023/12/31 00:46:59;;;;;;;12.80;3.33;;;;;;;;;;5056435;28;20536;-71
2023/12/31 00:49:25;;;;;;;13.43;3.13;;;;;;;;;;5056376;28;20425;-71
2023/12/31 00:51:52;;;;;;;9.90;2.90;;;;;;;;;;5056156;28;20435;-71
2023/12/31 00:54:18;;;;;;;8.40;3.30;;;;;;;;;;5072070;28;20413;-71
2023/12/31 00:56:45;;;;;;;7.90;2.97;;;;;;;;;;5071500;28;20571;-71
2023/12/31 00:59:12;;;;;;;13.47;3.73;;;;;;;;;;5056517;28;20417;-71
2023/12/31 01:01:38;;;;;;;8.83;3.53;;;;;;;;;;5038230;28;20190;-71
2023/12/31 01:04:05;;;;;;;9.77;2.97;;;;;;;;;;5072044;28;20430;-71
2023/12/31 01:06:32;;;;;;;8.30;3.00;;;;;;;;;;5054497;28;20753;-71
2023/12/31 01:08:59;;;;;;;11.17;2.90;;;;;;;;;;5071231;28;20444;-71
2023/12/31 01:11:29;;;;;;;13.07;3.33;;;;;;;;;;5055410;28;20539;-71
2023/12/31 01:49:05;;;;;;;9.17;3.47;;;;;;;;;;5055361;28;20470;-71
2023/12/31 01:51:32;;;;;;;8.53;4.17;;;;;;;;;;5070507;28;20988;-71
2023/12/31 01:53:59;;;;;;;8.63;3.40;;;;;;;;;;5070356;28;20476;-71
2023/12/31 01:56:26;;;;;;;12.90;4.00;;;;;;;;;;5053368;28;20297;-71
2023/12/31 01:58:53;;;;;;;8.17;3.80;;;;;;;;;;5037126;28;20432;-71
2023/12/31 02:01:22;;;;;;;5.63;3.00;;;;;;;;;;5053541;28;20510;-71
2023/12/31 02:03:49;;;;;;;8.43;3.30;;;;;;;;;;5054275;28;20425;-71
2023/12/31 02:06:16;;;;;;;8.90;3.73;;;;;;;;;;5053782;28;20433;-71
2023/12/31 02:08:42;;;;;;;9.43;3.50;;;;;;;;;;5069940;28;20947;-71
2023/12/31 02:11:09;;;;;;;8.53;3.67;;;;;;;;;;5036840;28;20476;-71
2023/12/31 02:13:35;;;;;;;9.87;3.40;;;;;;;;;;5036772;28;20931;-71
2023/12/31 02:16:02;;;;;;;12.47;3.60;;;;;;;;;;5037028;28;20620;-71
2023/12/31 02:18:29;;;;;;;7.27;3.47;;;;;;;;;;5069887;28;20757;-71
2023/12/31 02:21:14;;;;;;;9.40;3.30;;;;;;;;;;5053606;28;20702;-71
2023/12/31 02:23:41;;;;;;;8.80;3.27;;;;;;;;;;5037091;28;20436;-71
2023/12/31 02:26:09;;;;;;;8.23;3.50;;;;;;;;;;5053715;28;20460;-71
2023/12/31 02:28:35;;;;;;;12.57;3.57;;;;;;;;;;5070419;28;20453;-71
2023/12/31 02:31:02;;;;;;;12.57;3.93;;;;;;;;;;5052651;28;20426;-71
2023/12/31 02:33:29;;;;;;;7.93;3.90;;;;;;;;;;5053059;28;20997;-71
2023/12/31 02:35:56;;;;;;;10.43;3.87;;;;;;;;;;5036496;28;20433;-71
2023/12/31 02:38:23;;;;;;;12.07;4.27;;;;;;;;;;5052496;28;20436;-71
2023/12/31 02:40:49;;;;;;;9.60;3.60;;;;;;;;;;5070032;28;20417;-71
2023/12/31 02:43:16;;;;;;;7.20;3.43;;;;;;;;;;5054867;28;20753;-71
2023/12/31 02:45:43;;;;;;;9.73;3.57;;;;;;;;;;5052873;28;20471;-71
2023/12/31 02:52:03;;;;;;;7.37;3.20;;;;;;;;;;5053724;28;20365;-71
2023/12/31 02:54:47;;;;;;;13.27;3.70;;;;;;;;;;5038734;28;20459;-71
2023/12/31 02:57:15;;;;;;;8.73;3.20;;;;;;;;;;5036841;28;20438;-71
2023/12/31 02:59:42;;;;;;;12.47;4.20;;;;;;;;;;5053879;28;20425;-71
2023/12/31 03:02:08;;;;;;;9.47;3.17;;;;;;;;;;5069299;28;20432;-71
2023/12/31 03:04:38;;;;;;;10.17;3.57;;;;;;;;;;5054370;28;20425;-71
2023/12/31 03:07:22;;;;;;;11.13;3.07;;;;;;;;;;5039037;28;20452;-71
2023/12/31 03:09:48;;;;;;;10.40;3.40;;;;;;;;;;5052468;28;20460;-71
2023/12/31 03:12:15;;;;;;;9.57;3.20;;;;;;;;;;5053369;28;20425;-71
2023/12/31 03:14:42;;;;;;;10.10;3.13;;;;;;;;;;5052163;28;20522;-72
2023/12/31 03:17:09;;;;;;;12.17;2.80;;;;;;;;;;5054256;28;20847;-72
2023/12/31 03:19:53;;;;;;;8.33;2.90;;;;;;;;;;5069733;28;20409;-71
2023/12/31 03:22:19;;;;;;;10.50;3.57;;;;;;;;;;5069970;28;20416;-71
2023/12/31 03:25:04;;;;;;;9.97;3.33;;;;;;;;;;5052284;28;20444;-71
2023/12/31 03:27:31;;;;;;;13.13;3.23;;;;;;;;;;5053529;28;20469;-71
2023/12/31 03:29:57;;;;;;;7.90;3.33;;;;;;;;;;5053317;28;20432;-71
2023/12/31 03:32:24;;;;;;;11.00;3.10;;;;;;;;;;5052376;28;20439;-71
2023/12/31 03:34:51;;;;;;;14.70;3.80;;;;;;;;;;5053528;28;20425;-71
2023/12/31 03:37:18;;;;;;;8.07;3.60;;;;;;;;;;5035934;28;20447;-71
2023/12/31 03:39:45;;;;;;;9.57;3.73;;;;;;;;;;5069124;28;20436;-71
2023/12/31 03:42:12;;;;;;;12.07;3.83;;;;;;;;;;5055017;28;20409;-71
2023/12/31 03:44:39;;;;;;;14.97;3.73;;;;;;;;;;5056232;28;20432;-71
2023/12/31 03:47:05;;;;;;;8.77;3.57;;;;;;;;;;5039457;28;20445;-71
2023/12/31 03:49:32;;;;;;;14.83;4.10;;;;;;;;;;5056141;28;20425;-71
2023/12/31 03:51:58;;;;;;;9.93;3.60;;;;;;;;;;5057916;28;20736;-71
2023/12/31 03:58:24;;;;;;;12.07;3.47;;;;;;;;;;5051282;28;20502;-71
2023/12/31 04:00:51;;;;;;;12.80;4.10;;;;;;;;;;5056629;28;20852;-71
2023/12/31 04:03:17;;;;;;;14.43;4.97;;;;;;;;;;5056318;28;20772;-71
2023/12/31 04:05:44;;;;;;;9.63;4.43;;;;;;;;;;5055978;28;20441;-71
2023/12/31 04:08:11;;;;;;;11.10;4.00;;;;;;;;;;5039709;28;20457;-71
2023/12/31 04:10:37;;;;;;;14.03;4.63;;;;;;;;;;5055750;28;20519;-71
2023/12/31 04:13:04;;;;;;;14.00;4.50;;;;;;;;;;5072266;28;20436;-71
2023/12/31 04:15:31;;;;;;;16.13;4.87;;;;;;;;;;5072486;28;20527;-71
2023/12/31 04:17:58;;;;;;;11.70;4.40;;;;;;;;;;5072469;28;20421;-71
2023/12/31 04:20:25;;;;;;;9.80;4.33;;;;;;;;;;5039183;28;20421;-71
2023/12/31 04:22:52;;;;;;;13.83;4.93;;;;;;;;;;5038883;28;20441;-71
2023/12/31 04:25:36;;;;;;;16.70;4.57;;;;;;;;;;5056630;28;20428;-71
2023/12/31 04:28:03;;;;;;;10.33;4.07;;;;;;;;;;5055334;28;20488;-71
2023/12/31 04:30:30;;;;;;;8.13;4.60;;;;;;;;;;5071779;28;20429;-71
2023/12/31 04:32:57;;;;;;;10.97;4.30;;;;;;;;;;5056184;28;20916;-71
2023/12/31 04:35:24;;;;;;;13.27;4.10;;;;;;;;;;5055677;28;20760;-72
2023/12/31 04:37:50;;;;;;;13.43;4.43;;;;;;;;;;5056627;28;20581;-72
2023/12/31 04:40:19;;;;;;;14.50;4.60;;;;;;;;;;5056086;28;20429;-71
2023/12/31 04:42:45;;;;;;;10.93;4.60;;;;;;;;;;5055129;28;20516;-71
2023/12/31 04:45:13;;;;;;;17.37;4.73;;;;;;;;;;5055001;28;20433;-71
2023/12/31 04:47:39;;;;;;;12.27;4.37;;;;;;;;;;5056380;28;20753;-71
2023/12/31 04:50:07;;;;;;;10.40;4.60;;;;;;;;;;5055022;28;20417;-71
2023/12/31 04:52:53;;;;;;;8.80;4.23;;;;;;;;;;5069330;28;20388;-71
2023/12/31 04:55:19;;;;;;;14.17;4.87;;;;;;;;;;5056109;28;20413;-71
2023/12/31 04:58:03;;;;;;;12.37;4.40;;;;;;;;;;5054284;28;20480;-71
2023/12/31 05:00:30;;;;;;;10.63;4.30;;;;;;;;;;5055559;28;20514;-71
2023/12/31 05:02:57;;;;;;;12.67;5.00;;;;;;;;;;5056019;28;20421;-71
2023/12/31 05:05:23;;;;;;;11.97;5.20;;;;;;;;;;5055820;28;20417;-71
2023/12/31 05:07:50;;;;;;;8.77;3.93;;;;;;;;;;5071246;28;20453;-71
2023/12/31 05:10:17;;;;;;;9.67;4.60;;;;;;;;;;5037755;28;20445;-71
2023/12/31 05:12:43;;;;;;;10.30;4.67;;;;;;;;;;5054886;28;20476;-71
2023/12/31 05:15:10;;;;;;;13.70;4.77;;;;;;;;;;5054242;28;20908;-71
2023/12/31 05:17:55;;;;;;;8.50;4.00;;;;;;;;;;5055734;28;20712;-71
2023/12/31 05:20:21;;;;;;;8.97;3.60;;;;;;;;;;5055229;28;20951;-71
2023/12/31 05:23:05;;;;;;;6.47;3.57;;;;;;;;;;5055669;28;20392;-71
2023/12/31 05:25:32;;;;;;;9.20;3.80;;;;;;;;;;5054277;28;20428;-71
2023/12/31 05:28:16;;;;;;;8.77;4.10;;;;;;;;;;5054145;28;20908;-71
2023/12/31 05:30:43;;;;;;;8.57;3.93;;;;;;;;;;5053978;28;20441;-71
2023/12/31 05:33:27;;;;;;;8.40;3.80;;;;;;;;;;5055438;28;20395;-71
2023/12/31 05:35:53;;;;;;;12.27;4.50;;;;;;;;;;5055035;28;20182;-72
2023/12/31 05:38:37;;;;;;;9.97;4.47;;;;;;;;;;5054599;28;20408;-71
2023/12/31 05:41:04;;;;;;;9.63;4.70;;;;;;;;;;5055211;28;20194;-72
2023/12/31 05:43:31;;;;;;;9.73;3.93;;;;;;;;;;5054283;28;20433;-75
2023/12/31 05:45:57;;;;;;;7.67;3.97;;;;;;;;;;5037380;28;20931;-75
2023/12/31 05:48:24;;;;;;;13.93;4.97;;;;;;;;;;5054848;28;20949;-75
2023/12/31 05:50:51;;;;;;;15.60;7.23;;;;;;;;;;5054226;28;20502;-76
2023/12/31 05:53:18;;;;;;;14.53;7.40;;;;;;;;;;5055305;28;20182;-76
2023/12/31 05:55:45;;;;;;;9.27;6.27;;;;;;;;;;5070287;28;20425;-77
2023/12/31 05:58:12;;;;;;;14.23;5.93;;;;;;;;;;5036946;28;20457;-77
2023/12/31 06:00:39;;;;;;;13.77;6.47;;;;;;;;;;5053810;28;20437;-76
2023/12/31 06:03:05;;;;;;;12.43;6.30;;;;;;;;;;5054624;28;20435;-75
2023/12/31 06:05:33;;;;;;;13.80;5.97;;;;;;;;;;5069224;28;20424;-79
2023/12/31 06:07:59;;;;;;;14.80;7.13;;;;;;;;;;5054986;28;20493;-72
2023/12/31 06:10:26;;;;;;;15.87;7.43;;;;;;;;;;5053458;28;20516;-75
2023/12/31 06:12:53;;;;;;;18.57;8.60;;;;;;;;;;5069985;28;20511;-74
2023/12/31 06:15:20;;;;;;;16.73;6.50;;;;;;;;;;5069885;28;20425;-77
2023/12/31 06:17:48;;;;;;;17.83;6.83;;;;;;;;;;5054541;28;20858;-78
2023/12/31 06:20:14;;;;;;;15.90;7.50;;;;;;;;;;5054975;28;20489;-75
2023/12/31 06:22:41;;;;;;;12.43;7.07;;;;;;;;;;5070226;28;20435;-76
2023/12/31 06:25:08;;;;;;;16.30;6.60;;;;;;;;;;5053801;28;20449;-76
2023/12/31 06:27:39;;;;;;;18.40;6.80;;;;;;;;;;5053686;28;20946;-76
2023/12/31 06:30:06;;;;;;;14.23;6.83;;;;;;;;;;5053630;28;20402;-77
2023/12/31 06:32:33;;;;;;;15.63;6.17;;;;;;;;;;5055288;28;20453;-77
2023/12/31 06:35:01;;;;;;;13.87;6.50;;;;;;;;;;5053829;28;20776;-76
2023/12/31 06:37:28;;;;;;;11.70;6.40;;;;;;;;;;5054477;28;20409;-76
2023/12/31 06:39:55;;;;;;;15.57;8.50;;;;;;;;;;5055203;28;20943;-75
2023/12/31 06:42:40;;;;;;;13.13;6.23;;;;;;;;;;5067829;28;20432;-76
2023/12/31 06:45:07;;;;;;;12.97;5.77;;;;;;;;;;5053284;28;20482;-76
2023/12/31 06:47:34;;;;;;;12.87;5.80;;;;;;;;;;5037448;28;20425;-77
2023/12/31 06:50:02;;;;;;;13.03;6.17;;;;;;;;;;5054314;28;20444;-76
2023/12/31 06:52:29;;;;;;;15.10;6.63;;;;;;;;;;5054074;28;20835;-73
2023/12/31 06:54:56;;;;;;;13.37;5.93;;;;;;;;;;5053564;28;20452;-75
2023/12/31 06:57:23;;;;;;;15.90;6.70;;;;;;;;;;5052906;28;20588;-75
2023/12/31 06:59:50;;;;;;;11.90;5.83;;;;;;;;;;5054234;28;20433;-78
2023/12/31 07:02:17;;;;;;;14.90;6.27;;;;;;;;;;5070942;28;20441;-78
2023/12/31 07:04:44;;;;;;;14.13;6.63;;;;;;;;;;5053670;28;20460;-74
2023/12/31 07:07:11;;;;;;;14.33;6.50;;;;;;;;;;5070676;28;20441;-77
2023/12/31 07:09:55;;;;;;;12.07;6.70;;;;;;;;;;5039155;28;20441;-72
2023/12/31 07:12:22;;;;;;;14.63;7.10;;;;;;;;;;5054064;28;20444;-76
2023/12/31 07:14:49;;;;;;;15.40;6.53;;;;;;;;;;5054991;28;20414;-76
2023/12/31 07:17:15;;;;;;;13.03;6.93;;;;;;;;;;5058052;28;20431;-76
2023/12/31 07:19:42;;;;;;;15.43;7.37;;;;;;;;;;5058669;28;20460;-76
2023/12/31 07:22:26;;;;;;;17.23;6.90;;;;;;;;;;5058448;28;20860;-77
2023/12/31 07:24:53;;;;;;;19.27;8.13;;;;;;;;;;5059129;28;20445;-75
2023/12/31 07:27:20;;;;;;;16.70;7.63;;;;;;;;;;5059773;28;20439;-76
2023/12/31 07:29:47;;;;;;;14.63;6.37;;;;;;;;;;5042475;28;20479;-78
2023/12/31 07:32:16;;;;;;;19.67;7.47;;;;;;;;;;5075331;28;20973;-77
2023/12/31 07:34:44;;;;;;;12.03;5.33;;;;;;;;;;5040352;28;20436;-79
2023/12/31 07:37:11;;;;;;;17.30;7.53;;;;;;;;;;5057656;28;20433;-75
2023/12/31 07:39:42;;;;;;;14.87;6.53;;;;;;;;;;5072577;28;20516;-73
2023/12/31 07:42:09;;;;;;;15.87;7.43;;;;;;;;;;5073301;28;20436;-75
2023/12/31 07:44:35;;;;;;;19.00;7.43;;;;;;;;;;5057477;28;20428;-75
2023/12/31 07:47:03;;;;;;;15.33;6.40;;;;;;;;;;5072891;28;20433;-75
2023/12/31 07:49:30;;;;;;;13.90;5.67;;;;;;;;;;5057245;28;20468;-75
2023/12/31 07:51:57;;;;;;;18.03;6.83;;;;;;;;;;5073117;28;20439;-75
2023/12/31 07:54:25;;;;;;;14.90;7.63;;;;;;;;;;5056886;28;20429;-74
2023/12/31 07:56:52;;;;;;;16.13;7.87;;;;;;;;;;5073999;28;20419;-75
2023/12/31 07:59:20;;;;;;;14.33;7.03;;;;;;;;;;5058695;28;20410;-75
2023/12/31 08:05:46;;;;;;;16.70;6.80;;;;;;;;;;5056805;28;20408;-72
2023/12/31 08:08:13;;;;;;;15.77;7.13;;;;;;;;;;5057459;28;20487;-71
2023/12/31 08:10:41;;;;;;;15.70;7.40;;;;;;;;;;5055909;28;20479;-72
2023/12/31 08:13:08;;;;;;;19.20;7.77;;;;;;;;;;5055482;28;20429;-71
2023/12/31 08:15:35;;;;;;;16.47;8.03;;;;;;;;;;5057396;28;20456;-71
2023/12/31 08:18:03;;;;;;;18.13;9.20;;;;;;;;;;5072221;28;20811;-72
2023/12/31 08:24:29;;;;;;;18.77;9.40;;;;;;;;;;5056636;28;20439;-72
2023/12/31 08:26:55;;;;;;;17.27;9.37;;;;;;;;;;5055248;28;20423;-72
2023/12/31 08:29:42;;;;;;;20.40;9.37;;;;;;;;;;5055849;28;20469;-72
2023/12/31 08:32:09;;;;;;;20.27;8.73;;;;;;;;;;5056355;28;20446;-72
2023/12/31 08:34:54;;;;;;;16.37;9.30;;;;;;;;;;5056626;28;20391;-72
2023/12/31 08:37:21;;;;;;;21.67;9.70;;;;;;;;;;5071979;28;20476;-72
2023/12/31 08:39:49;;;;;;;23.13;10.47;;;;;;;;;;5056165;28;20433;-72
2023/12/31 08:42:16;;;;;;;21.97;10.37;;;;;;;;;;5038625;28;20421;-72
2023/12/31 08:44:43;;;;;;;30.93;11.30;;;;;;;;;;5038497;28;20973;-72
2023/12/31 08:47:27;;;;;;;25.00;10.27;;;;;;;;;;5042190;28;20389;-72
2023/12/31 08:49:55;;;;;;;30.43;11.30;;;;;;;;;;5056155;28;20511;-72
2023/12/31 08:52:22;;;;;;;22.37;10.87;;;;;;;;;;5038576;28;20445;-72
2023/12/31 08:54:48;;;;;;;23.27;11.73;;;;;;;;;;5038605;28;20480;-72
2023/12/31 08:57:16;;;;;;;45.87;12.50;;;;;;;;;;5055024;28;20490;-72
2023/12/31 08:59:42;;;;;;;27.90;12.53;;;;;;;;;;5054681;28;20443;-72
2023/12/31 09:02:09;;;;;;;28.40;12.87;;;;;;;;;;5056838;28;20455;-72
2023/12/31 09:04:36;;;;;;;22.70;11.50;;;;;;;;;;5057007;28;20471;-72
2023/12/31 09:07:03;;;;;;;27.33;11.40;;;;;;;;;;5038680;28;20432;-72
2023/12/31 09:09:30;;;;;;;27.97;10.80;;;;;;;;;;5055387;28;20496;-72
2023/12/31 09:11:58;;;;;;;36.87;12.07;;;;;;;;;;5054496;28;20430;-71
2023/12/31 09:14:24;;;;;;;24.17;10.57;;;;;;;;;;5038174;28;20450;-72
2023/12/31 09:16:51;;;;;;;36.23;12.60;;;;;;;;;;5056097;28;20449;-72
2023/12/31 09:19:18;;;;;;;27.37;12.53;;;;;;;;;;5055346;28;20460;-72
2023/12/31 09:21:45;;;;;;;37.50;11.57;;;;;;;;;;5038238;28;20516;-72
2023/12/31 09:24:11;;;;;;;39.27;12.33;;;;;;;;;;5037838;28;20452;-72
2023/12/31 09:26:38;;;;;;;36.40;11.97;;;;;;;;;;5054359;28;20932;-79
2023/12/31 09:29:05;;;;;;;57.17;13.57;;;;;;;;;;5037944;28;20867;-75
2023/12/31 09:31:33;;;;;;;48.90;13.73;;;;;;;;;;5054387;28;20474;-79
2023/12/31 09:34:00;;;;;;;32.20;13.53;;;;;;;;;;5038263;28;20852;-78
2023/12/31 09:36:27;;;;;;;70.43;15.87;;;;;;;;;;5037705;28;20437;-78
2023/12/31 09:38:54;;;;;;;37.13;14.27;;;;;;;;;;5053923;28;20421;-77
2023/12/31 09:41:24;;;;;;;52.10;14.43;;;;;;;;;;5053985;28;20456;-76
2023/12/31 09:43:52;;;;;;;42.63;14.90;;;;;;;;;;5037548;28;20447;-73
2023/12/31 09:46:20;;;;;;;38.70;14.70;;;;;;;;;;5055177;28;20491;-72
2023/12/31 09:48:50;;;;;;;53.70;14.47;;;;;;;;;;5054153;28;20967;-73
2023/12/31 09:51:17;;;;;;;36.43;16.90;;;;;;;;;;5054303;28;20393;-72
2023/12/31 09:53:44;;;;;;;32.33;14.53;;;;;;;;;;5054858;28;20429;-73
2023/12/31 09:56:13;;;;;;;27.93;11.37;;;;;;;;;;5037690;28;20954;-73
2023/12/31 09:58:39;;;;;;;18.73;10.27;;;;;;;;;;5037330;28;20457;-73
2023/12/31 10:01:07;;;;;;;26.07;10.37;;;;;;;;;;5055005;28;20433;-73
2023/12/31 10:03:33;;;;;;;20.83;9.53;;;;;;;;;;5054379;28;20444;-73
2023/12/31 10:06:00;;;;;;;17.63;9.10;;;;;;;;;;5036570;28;20445;-69
2023/12/31 10:08:27;;;;;;;14.93;8.37;;;;;;;;;;5052711;28;20413;-69
2023/12/31 10:10:54;;;;;;;18.73;8.53;;;;;;;;;;5036784;28;20434;-69
2023/12/31 10:13:21;;;;;;;17.17;9.13;;;;;;;;;;5036735;28;20777;-69
2023/12/31 10:15:48;;;;;;;13.03;7.63;;;;;;;;;;5069885;28;20843;-69
2023/12/31 10:18:15;;;;;;;23.53;10.43;;;;;;;;;;5053504;28;20496;-69
2023/12/31 10:20:42;;;;;;;15.97;8.93;;;;;;;;;;5053007;28;20459;-69
2023/12/31 10:23:08;;;;;;;91.47;28.30;;;;;;;;;;5053177;28;20456;-69
2023/12/31 10:25:35;;;;;;;25.23;9.33;;;;;;;;;;5053916;28;21020;-69
2023/12/31 10:28:04;;;;;;;22.90;10.83;;;;;;;;;;5070107;28;20441;-69
2023/12/31 10:30:30;;;;;;;60.93;21.87;;;;;;;;;;5036452;28;20472;-69
2023/12/31 10:33:07;;;;;;;46.77;19.53;;;;;;;;;;5052667;28;20437;-69
2023/12/31 10:35:35;;;;;;;31.30;13.30;;;;;;;;;;5053128;28;20531;-69
2023/12/31 10:38:05;;;;;;;30.90;15.77;;;;;;;;;;5052880;28;20425;-70
2023/12/31 10:40:35;;;;;;;25.83;10.70;;;;;;;;;;5037240;28;20772;-69
2023/12/31 10:43:06;;;;;;;23.97;12.33;;;;;;;;;;5053165;28;20963;-69
2023/12/31 10:45:33;;;;;;;38.30;15.13;;;;;;;;;;5036148;28;20433;-69
2023/12/31 10:48:01;;;;;;;24.23;11.03;;;;;;;;;;5036278;28;20443;-69
2023/12/31 10:50:28;;;;;;;20.87;12.67;;;;;;;;;;5052326;28;20925;-69
2023/12/31 10:52:57;;;;;;;20.20;10.67;;;;;;;;;;5053119;28;20437;-69
2023/12/31 10:55:24;;;;;;;38.60;14.40;;;;;;;;;;5052646;28;20425;-70
2023/12/31 10:58:08;;;;;;;32.47;13.50;;;;;;;;;;5054055;28;20441;-69
2023/12/31 11:00:35;;;;;;;23.43;12.53;;;;;;;;;;5052350;28;20940;-69
2023/12/31 11:03:03;;;;;;;21.07;12.33;;;;;;;;;;5052642;28;20413;-69
2023/12/31 11:05:30;;;;;;;21.17;11.30;;;;;;;;;;5036072;28;20874;-69
2023/12/31 11:07:57;;;;;;;23.50;12.57;;;;;;;;;;5035981;28;20524;-69
2023/12/31 11:10:23;;;;;;;25.27;11.67;;;;;;;;;;5019721;28;20467;-69
2023/12/31 11:12:50;;;;;;;20.13;11.13;;;;;;;;;;5052564;28;20421;-69
2023/12/31 11:15:18;;;;;;;23.03;11.43;;;;;;;;;;5036022;28;20429;-69
2023/12/31 11:18:03;;;;;;;18.30;10.93;;;;;;;;;;5035896;28;20495;-70
2023/12/31 11:20:36;;;;;;;17.73;10.40;;;;;;;;;;5052433;28;20501;-70
2023/12/31 11:23:23;;;;;;;19.10;10.73;;;;;;;;;;5052302;28;20398;-69
2023/12/31 11:25:50;;;;;;;25.23;10.97;;;;;;;;;;5053327;28;20441;-70
2023/12/31 11:28:17;;;;;;;21.23;10.50;;;;;;;;;;5052384;28;20421;-70
2023/12/31 11:30:48;;;;;;;17.67;9.23;;;;;;;;;;5053960;28;20476;-69
2023/12/31 11:33:16;;;;;;;16.67;8.73;;;;;;;;;;5051998;28;20990;-69
2023/12/31 11:35:47;;;;;;;20.43;9.80;;;;;;;;;;5052070;28;20742;-69
2023/12/31 11:38:14;;;;;;;18.37;9.67;;;;;;;;;;5052930;28;20452;-69
2023/12/31 11:40:41;;;;;;;16.40;8.87;;;;;;;;;;5036457;28;20433;-70
2023/12/31 11:43:13;;;;;;;17.07;9.20;;;;;;;;;;5052145;28;20429;-70
2023/12/31 11:45:41;;;;;;;14.67;8.90;;;;;;;;;;5068910;28;20389;-69
2023/12/31 11:48:22;;;;;;;14.20;8.83;;;;;;;;;;5036537;28;20441;-69
2023/12/31 11:50:49;;;;;;;17.13;9.00;;;;;;;;;;5053288;28;20452;-69
2023/12/31 11:53:16;;;;;;;16.07;9.00;;;;;;;;;;5068463;28;20483;-69
2023/12/31 11:55:43;;;;;;;12.10;6.90;;;;;;;;;;5068732;28;20437;-69
2023/12/31 11:58:10;;;;;;;11.43;6.70;;;;;;;;;;5068797;28;20957;-69
2023/12/31 12:00:38;;;;;;;15.80;7.83;;;;;;;;;;5052978;28;20420;-69
2023/12/31 12:03:08;;;;;;;20.07;10.00;;;;;;;;;;5055189;28;20524;-69
2023/12/31 12:05:34;;;;;;;14.83;8.70;;;;;;;;;;5055604;28;20428;-69
2023/12/31 12:08:04;;;;;;;13.00;7.70;;;;;;;;;;5057062;28;20812;-69
2023/12/31 12:10:32;;;;;;;13.37;8.00;;;;;;;;;;5039714;28;20493;-69
2023/12/31 12:13:02;;;;;;;11.03;7.27;;;;;;;;;;5056276;28;20417;-70
2023/12/31 12:15:34;;;;;;;13.00;7.47;;;;;;;;;;5056249;28;20176;-70
2023/12/31 12:18:01;;;;;;;17.63;8.93;;;;;;;;;;5039701;28;20629;-69
2023/12/31 12:20:28;;;;;;;15.50;8.53;;;;;;;;;;5056742;28;20425;-69
2023/12/31 12:22:55;;;;;;;18.83;8.73;;;;;;;;;;5057028;28;20516;-69
2023/12/31 12:25:23;;;;;;;16.17;10.00;;;;;;;;;;5055311;28;20452;-69
2023/12/31 12:27:53;;;;;;;19.07;9.90;;;;;;;;;;5039624;28;20465;-69
2023/12/31 12:30:19;;;;;;;19.87;9.77;;;;;;;;;;5055514;28;20543;-70
2023/12/31 12:32:46;;;;;;;18.97;10.10;;;;;;;;;;5072197;28;20437;-69
2023/12/31 12:35:13;;;;;;;20.07;10.30;;;;;;;;;;5055314;28;20424;-69
2023/12/31 12:37:40;;;;;;;17.97;9.97;;;;;;;;;;5055277;28;20486;-70
2023/12/31 12:40:07;;;;;;;18.50;9.90;;;;;;;;;;5056452;28;20409;-70
2023/12/31 12:42:34;;;;;;;18.83;10.23;;;;;;;;;;5038754;28;20433;-70
2023/12/31 12:45:00;;;;;;;21.53;10.10;;;;;;;;;;5056339;28;20421;-70
2023/12/31 12:47:43;;;;;;;;;;;;;;;;;;;;;
2023/12/31 12:54:33;;;;;;;29.43;15.13;;;;;;;;;;5050441;28;20421;-70
2023/12/31 13:05:46;;;;;;;31.07;15.87;;;;;;;;;;5053956;28;20947;-70
2023/12/31 13:08:52;;;;;;;23.77;11.67;;;;;;;;;;5041256;28;20270;-70
2023/12/31 13:12:16;;;;;;;19.53;11.37;;;;;;;;;;5041072;28;20958;-70
2023/12/31 13:15:43;;;;;;;20.27;11.00;;;;;;;;;;5052530;28;20524;-70
2023/12/31 13:18:42;;;;;;;55.10;26.13;;;;;;;;;;5054127;28;20401;-70
2023/12/31 13:21:33;;;;;;;25.87;14.17;;;;;;;;;;5035163;28;20432;-70
2023/12/31 13:24:52;;;;;;;25.00;12.37;;;;;;;;;;5031266;28;20454;-70
2023/12/31 13:27:45;;;;;;;52.17;22.93;;;;;;;;;;5014171;28;20524;-70
2023/12/31 13:34:58;;;;;;;20.80;10.67;;;;;;;;;;5021662;28;20426;-70
2023/12/31 13:53:40;;;;;;;23.53;12.67;;;;;;;;;;5052882;28;20385;-69
2023/12/31 13:56:09;;;;;;;27.03;12.57;;;;;;;;;;5054894;28;20525;-69
2023/12/31 13:58:36;;;;;;;27.13;12.73;;;;;;;;;;5037045;28;20522;-69
2023/12/31 14:01:03;;;;;;;25.63;12.33;;;;;;;;;;5054066;28;20449;-69
2023/12/31 14:03:29;;;;;;;36.30;12.37;;;;;;;;;;5053582;28;20553;-69
2023/12/31 14:05:57;;;;;;;30.33;13.07;;;;;;;;;;5046798;28;20849;-69
2023/12/31 14:08:25;;;;;;;34.00;14.10;;;;;;;;;;5020993;28;20448;-69
2023/12/31 14:10:52;;;;;;;28.33;14.53;;;;;;;;;;5054459;28;20461;-69
2023/12/31 14:13:20;;;;;;;27.47;12.80;;;;;;;;;;5067396;28;20904;-69
2023/12/31 14:15:47;;;;;;;29.13;13.73;;;;;;;;;;5053551;28;20414;-70
2023/12/31 14:18:13;;;;;;;45.37;15.90;;;;;;;;;;5053035;28;20483;-69
2023/12/31 14:20:41;;;;;;;36.57;14.70;;;;;;;;;;5054409;28;20471;-69
2023/12/31 14:23:08;;;;;;;49.07;17.43;;;;;;;;;;5054143;28;20421;-69
2023/12/31 14:25:35;;;;;;;43.20;15.13;;;;;;;;;;5053415;28;20449;-69
2023/12/31 14:28:03;;;;;;;46.13;15.60;;;;;;;;;;5054634;28;20831;-69
2023/12/31 14:30:32;;;;;;;52.50;15.07;;;;;;;;;;5053186;28;20461;-69
2023/12/31 14:32:59;;;;;;;73.00;16.67;;;;;;;;;;5053326;28;20516;-69
2023/12/31 14:35:28;;;;;;;82.23;17.80;;;;;;;;;;5053909;28;20433;-69
2023/12/31 14:37:55;;;;;;;83.53;18.20;;;;;;;;;;5036699;28;20974;-69
2023/12/31 14:40:22;;;;;;;130.23;20.97;;;;;;;;;;5069256;28;20421;-69
2023/12/31 14:42:49;;;;;;;117.97;19.70;;;;;;;;;;5045158;28;20490;-69
2023/12/31 14:45:16;;;;;;;51.60;18.23;;;;;;;;;;5054576;28;20432;-69
2023/12/31 14:47:43;;;;;;;41.30;17.63;;;;;;;;;;5052326;28;20445;-69
2023/12/31 14:50:12;;;;;;;38.77;15.13;;;;;;;;;;5044800;28;21015;-69
2023/12/31 14:52:39;;;;;;;42.17;15.40;;;;;;;;;;5053582;28;20421;-70
2023/12/31 14:55:07;;;;;;;56.20;16.90;;;;;;;;;;5052796;28;20455;-69
2023/12/31 14:57:33;;;;;;;83.73;17.53;;;;;;;;;;5035709;28;20457;-69
2023/12/31 15:00:00;;;;;;;110.77;18.67;;;;;;;;;;5052296;28;20483;-69
2023/12/31 15:02:27;;;;;;;97.77;17.40;;;;;;;;;;5060201;28;20429;-69
2023/12/31 15:04:54;;;;;;;125.13;19.80;;;;;;;;;;5052609;28;20445;-69
2023/12/31 15:07:32;;;;;;;151.30;21.37;;;;;;;;;;5054009;28;20433;-69
2023/12/31 15:09:59;;;;;;;82.63;15.63;;;;;;;;;;5052378;28;20559;-69
2023/12/31 15:12:26;;;;;;;99.27;15.00;;;;;;;;;;5060649;28;20435;-69
2023/12/31 15:14:53;;;;;;;111.77;15.83;;;;;;;;;;5072835;28;20883;-69
2023/12/31 15:17:21;;;;;;;126.90;17.37;;;;;;;;;;5055725;28;20428;-69
2023/12/31 15:19:47;;;;;;;101.40;16.73;;;;;;;;;;5074066;28;20437;-69
2023/12/31 15:22:14;;;;;;;92.90;15.77;;;;;;;;;;5052896;28;20445;-69
2023/12/31 15:24:59;;;;;;;96.27;14.77;;;;;;;;;;5053179;28;20420;-69
2023/12/31 15:27:25;;;;;;;83.97;15.10;;;;;;;;;;5035877;28;20433;-69
2023/12/31 15:30:10;;;;;;;101.07;16.30;;;;;;;;;;5052981;28;20860;-69
2023/12/31 15:32:38;;;;;;;73.43;14.13;;;;;;;;;;5035856;28;20534;-75
2023/12/31 15:35:05;;;;;;;95.03;14.27;;;;;;;;;;5035072;28;20433;-71
2023/12/31 15:37:32;;;;;;;71.37;13.23;;;;;;;;;;5072693;28;20451;-71
2023/12/31 15:40:16;;;;;;;62.60;12.40;;;;;;;;;;5062443;28;20740;-71
2023/12/31 15:42:43;;;;;;;60.57;12.50;;;;;;;;;;5076128;28;20468;-70
2023/12/31 15:45:10;;;;;;;101.03;14.00;;;;;;;;;;5075917;28;20427;-70
2023/12/31 15:47:39;;;;;;;89.90;14.30;;;;;;;;;;5076542;28;20456;-70
2023/12/31 15:50:06;;;;;;;80.23;13.87;;;;;;;;;;5077782;28;20456;-71
2023/12/31 15:52:33;;;;;;;121.07;16.33;;;;;;;;;;5076385;28;20439;-70
2023/12/31 15:55:00;;;;;;;109.50;16.77;;;;;;;;;;5076279;28;20514;-70
2023/12/31 15:57:27;;;;;;;81.87;17.80;;;;;;;;;;5077082;28;20455;-70
2023/12/31 15:59:54;;;;;;;114.70;19.53;;;;;;;;;;5076366;28;20446;-71
2023/12/31 16:02:21;;;;;;;132.67;20.90;;;;;;;;;;5076522;28;20451;-70
2023/12/31 16:04:50;;;;;;;133.80;18.63;;;;;;;;;;5059260;28;20431;-70
2023/12/31 16:07:17;;;;;;;161.57;21.77;;;;;;;;;;5056030;28;20499;-70